Terminal Aerodrome Forecast
Issued by NWS

Home | Current Version | Previous Version | Text Only | Print | Product List | Glossary On
Versions: 1 2 3 4 5 6 7 8 9 10 11 12 13 14 15 16
000
FTAK31 PAJN 230523
TAFAJN
TAF
PAJN 230523Z 2306/2406 10012KT P6SM -SHRA SCT025 BKN035 OVC050
      TEMPO 2306/2310 5SM -SHRA BR OVC025
     FM231500 10010KT P6SM -SHRA SCT025 OVC040
     FM232100 07012KT 6SM -RA SCT025 OVC030 WS020/07025KT
     FM240100 09010KT P6SM -RA SCT025 OVC050=

USA.gov is the U.S. government's official web portal to all federal, state and local government web resources and services.